Nearby METAR Reports

 

KSFO - San Francisco, California, USA
Distance from station: NNW 8km
Updated: Sun, 25-Feb-2018 2:56pm PST
Few Clouds
Few Clouds
 Wind from W
Wind: W 18 mph , 30 km/h
Temperature: 55°F , 13°C
Dew Point: 37°F , 3°C
Humidity: 51%
Barometer: 30.27 inHg , 1025.1 hPa
Clouds: Few Clouds
Visibility: 10 miles , 16 km
Cloud details: Few Clouds 1700 ft
Few Clouds 20000 ft
2018/02/25 22:56 KSFO 252256Z 26016KT 10SM FEW017 FEW200 13/03 A3027 RMK AO2 SLP251 T01330033 $
KSQL - San Carlos Airpo, California, USA
Distance from station: ESE 8km
Updated: Sun, 25-Feb-2018 2:47pm PST
Few Clouds
Few Clouds
 Wind from WSW
Wind: WSW 8 mph , 13 km/h
Temperature: 61°F , 16°C
Dew Point: 32°F , 0°C
Humidity: 34%
Barometer: 30.26 inHg , 1024.7 hPa
Clouds: Few Clouds
Visibility: 10 miles , 16 km
Cloud details: Few Clouds 20000 ft
2018/02/25 22:47 KSQL 252247Z 24007KT 10SM FEW200 16/00 A3026
 
KHAF - Half Moon Bay, California, USA
Distance from station: WSW 15km
Updated: Sun, 25-Feb-2018 2:55pm PST
Haze, Clear
Haze, Clear
 Wind from NNW
Wind: NNW 15 mph , 24 km/h
Temperature: 54°F , 12°C
Dew Point: 43°F , 6°C
Humidity: 67%
Barometer: 30.26 inHg , 1024.7 hPa
Summary: Haze
Clouds: Clear
Visibility: 5 miles , 8 km
2018/02/25 22:55 KHAF 252255Z AUTO 33013KT 5SM HZ CLR 12/06 A3026 RMK AO2
KOAK - Oakland, California, USA
Distance from station: NNE 21km
Updated: Sun, 25-Feb-2018 2:53pm PST
Few Clouds
Few Clouds
 Wind from W
Wind: W 13 mph , 20 km/h
Temperature: 55°F , 13°C
Dew Point: 43°F , 6°C
Humidity: 63%
Barometer: 30.27 inHg , 1025.1 hPa
Clouds: Few Clouds
Visibility: 10 miles , 16 km
Cloud details: Few Clouds 25000 ft
2018/02/25 22:53 KOAK 252253Z 26011KT 10SM FEW250 13/06 A3027 RMK AO2 SLP251 T01330056
 
KPAO - Palo Alto, California, USA
Distance from station: ESE 21km
Updated: Sun, 25-Feb-2018 3:47pm PST
Clear
Clear
 Wind from NW
Wind: NW 12 mph , 19 km/h
Barometer: 30.27 inHg , 1025.1 hPa
Clouds: Clear
Visibility: 10 miles , 16 km
2018/02/25 23:47 KPAO 252347Z 32010KT 10SM SKC A3027
KHWD - Hayward, California, USA
Distance from station: NE 23km
Updated: Sun, 25-Feb-2018 2:54pm PST
Clear
Clear
 Wind from WNW
Wind: WNW 13 mph , 20 km/h
Temperature: 57°F , 14°C
Dew Point: 36°F , 2°C
Humidity: 44%
Barometer: 30.27 inHg , 1025.1 hPa
Clouds: Clear
Visibility: 10 miles , 16 km
2018/02/25 22:54 KHWD 252254Z 29011KT 10SM CLR 14/02 A3027 RMK AO2 SLP258 T01390017
 
KNUQ - Moffett Nas/Mtn, California, USA
Distance from station: ESE 30km
Updated: Sun, 25-Feb-2018 2:56pm PST
Clear
Clear
 Wind from N
Wind: N 14 mph , 22 km/h
Temperature: 57°F , 14°C
Dew Point: 36°F , 2°C
Humidity: 44%
Barometer: 30.26 inHg , 1024.7 hPa
Clouds: Clear
Visibility: 10 miles , 16 km
2018/02/25 22:56 KNUQ 252256Z 35012KT 10SM CLR 14/02 A3026 RMK AO2 SLP251 T01440022
KSJC - San Jose, California, USA
Distance from station: ESE 42km
Updated: Sun, 25-Feb-2018 2:53pm PST
Few Clouds
Few Clouds
 Wind from NW
Wind: NW 15 mph , 24 km/h
Temperature: 63°F , 17°C
Dew Point: 32°F , 0°C
Humidity: 32%
Barometer: 30.25 inHg , 1024.4 hPa
Clouds: Few Clouds
Visibility: 10 miles , 16 km
Cloud details: Few Clouds 2400 ft
Few Clouds 6000 ft
Few Clouds 16000 ft
2018/02/25 22:53 KSJC 252253Z 31013KT 10SM FEW024 FEW060 FEW160 17/00 A3025 RMK AO2 SLP243 T01670000 $
 
KLVK - Livermore, California, USA
Distance from station: ENE 49km
Updated: Sun, 25-Feb-2018 2:53pm PST
Clear
Clear
 Wind from WNW
Wind: WNW 9 mph , 15 km/h
Temperature: 61°F , 16°C
Dew Point: 36°F , 2°C
Humidity: 39%
Barometer: 30.24 inHg , 1024 hPa
Clouds: Clear
Visibility: 10 miles , 16 km
2018/02/25 22:53 KLVK 252253Z 29008KT 10SM CLR 16/02 A3024 RMK AO2 SLP239 T01610022 $
KRHV - San Jose/Reid, California, USA
Distance from station: ESE 53km
Updated: Sun, 25-Feb-2018 2:47pm PST
Clear
Clear
 Wind from NNW
Wind: NNW 17 mph , 28 km/h
Temperature: 61°F , 16°C
Dew Point: 32°F , 0°C
Humidity: 34%
Barometer: 30.23 inHg , 1023.7 hPa
Clouds: Clear
Visibility: 10 miles , 16 km
2018/02/25 22:47 KRHV 252247Z 33015KT 10SM SKC 16/00 A3023
 
KCCR - Concord, California, USA
Distance from station: NNE 56km
Updated: Sun, 25-Feb-2018 2:53pm PST
Clear
Clear
 Wind from NW
Wind: NW 8 mph , 13 km/h
Temperature: 64°F , 18°C
Dew Point: 30°F , -1°C
Humidity: 28%
Barometer: 30.24 inHg , 1024 hPa
Clouds: Clear
Visibility: 10 miles , 16 km
2018/02/25 22:53 KCCR 252253Z 31007KT 10SM CLR 18/M01 A3024 RMK AO2 SLP226 T01781011
KDVO - Novato/Gnoss Fld, California, USA
Distance from station: NNW 70km
Updated: Sun, 25-Feb-2018 2:55pm PST
Clear
Clear
 Wind from WNW
Wind: WNW 8 mph , 13 km/h
Temperature: 63°F , 17°C
Dew Point: 34°F , 1°C
Humidity: 34%
Barometer: 30.25 inHg , 1024.4 hPa
Clouds: Clear
Visibility: 10 miles , 16 km
2018/02/25 22:55 KDVO 252255Z AUTO 29007KT 250V320 10SM CLR 17/01 A3025 RMK AO2
 
KAPC - Napa, California, USA
Distance from station: N 73km
Updated: Sun, 25-Feb-2018 2:54pm PST
Clear
Clear
 Wind from SSW
Wind: SSW 15 mph , 24 km/h
Temperature: 61°F , 16°C
Dew Point: 39°F , 4°C
Humidity: 45%
Barometer: 30.24 inHg , 1024 hPa
Clouds: Clear
Visibility: 10 miles , 16 km
2018/02/25 22:54 KAPC 252254Z 20013KT 10SM CLR 16/04 A3024 RMK AO2 SLP232 T01560039